createdAt,value
2019-03-04T00:00:55.808Z,10.72
2019-03-04T00:01:55.778Z,10.72
2019-03-04T00:02:56.691Z,10.68
2019-03-04T00:03:55.658Z,10.68
2019-03-04T00:04:55.589Z,10.82
2019-03-04T00:05:55.561Z,10.71
2019-03-04T00:06:55.528Z,10.75
2019-03-04T00:07:55.498Z,10.72
2019-03-04T00:08:55.489Z,10.81
2019-03-04T00:09:55.441Z,10.75
2019-03-04T00:10:55.412Z,10.75
2019-03-04T00:11:55.382Z,10.79
2019-03-04T00:12:55.351Z,10.68
2019-03-04T00:13:55.345Z,10.72
2019-03-04T00:14:55.288Z,10.64
2019-03-04T00:15:55.336Z,10.60
2019-03-04T00:16:55.258Z,10.68
2019-03-04T00:17:55.201Z,10.64
2019-03-04T00:18:55.636Z,10.64
2019-03-04T00:19:56.093Z,10.67
2019-03-04T00:20:56.099Z,10.59
2019-03-04T00:21:55.597Z,10.48
2019-03-04T00:22:55.045Z,10.59
2019-03-04T00:23:55.593Z,10.61
2019-03-04T00:24:55.130Z,10.63
2019-03-04T00:25:54.970Z,10.61
2019-03-04T00:26:54.931Z,10.71
2019-03-04T00:27:54.899Z,10.61
2019-03-04T00:28:54.976Z,10.61
2019-03-04T00:29:54.874Z,10.63
2019-03-04T00:30:54.804Z,10.63
2019-03-04T00:31:54.811Z,10.60
2019-03-04T00:32:54.757Z,10.63
2019-03-04T00:33:54.727Z,10.64
2019-03-04T00:34:54.717Z,10.63
2019-03-04T00:35:54.656Z,10.61
2019-03-04T00:36:54.632Z,10.64
2019-03-04T00:37:54.597Z,10.60
2019-03-04T00:38:54.659Z,10.53
2019-03-04T00:39:54.631Z,10.48
2019-03-04T00:40:55.103Z,10.63
2019-03-04T00:41:55.097Z,10.67
2019-03-04T00:42:54.448Z,10.60
2019-03-04T00:43:54.412Z,10.53
2019-03-04T00:44:54.644Z,10.57
2019-03-04T00:45:54.355Z,10.48
2019-03-04T00:46:54.325Z,10.61
2019-03-04T00:47:54.295Z,10.61
2019-03-04T00:48:55.120Z,10.61
2019-03-04T00:49:54.270Z,10.61
2019-03-04T00:50:55.096Z,10.61
2019-03-04T00:51:54.180Z,10.59
2019-03-04T00:52:55.112Z,10.60
2019-03-04T00:53:54.120Z,10.64
2019-03-04T00:54:54.116Z,10.61
2019-03-04T00:55:54.054Z,10.69
2019-03-04T00:56:54.024Z,10.71
2019-03-04T00:57:54.599Z,10.71
2019-03-04T00:58:53.966Z,10.64
2019-03-04T00:59:54.140Z,10.63
2019-03-04T01:00:53.903Z,10.74
2019-03-04T01:01:54.604Z,10.68
2019-03-04T01:02:53.849Z,10.72
2019-03-04T01:03:54.630Z,10.69
2019-03-04T01:04:54.600Z,10.72
2019-03-04T01:05:53.773Z,10.74
2019-03-04T01:06:53.726Z,10.78
2019-03-04T01:07:53.697Z,10.79
2019-03-04T01:08:53.666Z,10.75
2019-03-04T01:09:53.634Z,10.74
2019-03-04T01:10:53.658Z,10.75
2019-03-04T01:11:53.577Z,10.76
2019-03-04T01:12:53.684Z,10.76
2019-03-04T01:13:53.517Z,10.75
2019-03-04T01:14:53.507Z,10.68
2019-03-04T01:15:53.635Z,10.68
2019-03-04T01:16:53.427Z,10.71
2019-03-04T01:17:54.102Z,10.68
2019-03-04T01:18:53.366Z,10.74
2019-03-04T01:19:53.337Z,10.74
2019-03-04T01:20:53.349Z,10.72
2019-03-04T01:21:53.282Z,10.67
2019-03-04T01:22:53.254Z,10.71
2019-03-04T01:23:53.222Z,10.64
2019-03-04T01:24:53.187Z,10.67
2019-03-04T01:25:53.183Z,10.63
2019-03-04T01:26:53.129Z,10.59
2019-03-04T01:27:53.097Z,10.54
2019-03-04T01:28:53.070Z,10.38
2019-03-04T01:29:53.043Z,10.31
2019-03-04T01:30:53.139Z,10.30
2019-03-04T01:31:52.974Z,10.26
2019-03-04T01:32:53.665Z,10.17
2019-03-04T01:33:52.919Z,10.04
2019-03-04T01:34:52.886Z,10.05
2019-03-04T01:35:52.879Z,9.98
2019-03-04T01:36:52.834Z,9.99
2019-03-04T01:37:53.609Z,9.89
2019-03-04T01:38:52.776Z,9.82
2019-03-04T01:39:52.740Z,9.80
2019-03-04T01:40:52.739Z,9.73
2019-03-04T01:41:52.677Z,9.74
2019-03-04T01:42:52.649Z,9.64
2019-03-04T01:43:52.614Z,9.55
2019-03-04T01:44:53.121Z,9.55
2019-03-04T01:45:52.581Z,9.54
2019-03-04T01:46:52.524Z,9.61
2019-03-04T01:47:53.107Z,9.55
2019-03-04T01:48:52.461Z,9.51
2019-03-04T01:49:53.126Z,9.54
2019-03-04T01:50:52.425Z,9.58
2019-03-04T01:51:52.374Z,9.46
2019-03-04T01:52:52.350Z,9.54
2019-03-04T01:53:52.308Z,9.56
2019-03-04T01:54:53.111Z,9.44
2019-03-04T01:55:52.654Z,9.44
2019-03-04T01:56:52.220Z,9.44
2019-03-04T01:57:53.109Z,9.43
2019-03-04T01:58:52.155Z,9.40
2019-03-04T01:59:53.111Z,9.44
2019-03-04T02:00:52.144Z,9.44
2019-03-04T02:01:52.070Z,9.44
2019-03-04T02:02:52.611Z,9.39
2019-03-04T02:03:52.002Z,9.41
2019-03-04T02:04:51.972Z,9.40
2019-03-04T02:05:52.700Z,9.39
2019-03-04T02:06:51.907Z,9.36
2019-03-04T02:07:52.614Z,9.31
2019-03-04T02:08:51.847Z,9.28
2019-03-04T02:09:51.816Z,9.32
2019-03-04T02:10:52.149Z,9.36
2019-03-04T02:11:51.754Z,9.32
2019-03-04T02:12:51.722Z,9.29
2019-03-04T02:13:51.699Z,9.26
2019-03-04T02:14:51.664Z,9.23
2019-03-04T02:15:51.654Z,9.21
2019-03-04T02:16:51.597Z,9.11
2019-03-04T02:17:52.111Z,9.21
2019-03-04T02:18:51.540Z,9.23
2019-03-04T02:19:51.518Z,9.18
2019-03-04T02:20:51.653Z,9.18
2019-03-04T02:21:51.448Z,9.16
2019-03-04T02:22:52.117Z,9.19
2019-03-04T02:23:51.383Z,9.16
2019-03-04T02:24:51.348Z,9.19
2019-03-04T02:25:51.318Z,9.23
2019-03-04T02:26:51.314Z,9.22
2019-03-04T02:27:51.257Z,9.26
2019-03-04T02:28:51.224Z,9.22
2019-03-04T02:29:52.116Z,9.19
2019-03-04T02:30:51.162Z,9.16
2019-03-04T02:31:51.156Z,9.23
2019-03-04T02:32:51.617Z,9.23
2019-03-04T02:33:51.072Z,9.26
2019-03-04T02:34:51.622Z,9.26
2019-03-04T02:35:51.810Z,9.23
2019-03-04T02:36:51.000Z,9.22
2019-03-04T02:37:51.635Z,9.16
2019-03-04T02:38:50.916Z,9.22
2019-03-04T02:39:51.615Z,9.16
2019-03-04T02:40:50.852Z,9.22
2019-03-04T02:41:51.151Z,9.14
2019-03-04T02:42:51.633Z,9.16
2019-03-04T02:43:50.755Z,9.19
2019-03-04T02:44:50.729Z,9.14
2019-03-04T02:45:51.624Z,9.19
2019-03-04T02:46:50.720Z,9.18
2019-03-04T02:47:50.632Z,9.08
2019-03-04T02:48:50.600Z,9.04
2019-03-04T02:49:50.582Z,8.94
2019-03-04T02:50:50.542Z,9.03
2019-03-04T02:51:50.541Z,8.97
2019-03-04T02:52:51.130Z,9.04
2019-03-04T02:53:50.444Z,9.02
2019-03-04T02:54:50.436Z,9.04
2019-03-04T02:55:50.380Z,8.94
2019-03-04T02:56:50.393Z,9.04
2019-03-04T02:57:50.321Z,9.02
2019-03-04T02:58:50.288Z,8.91
2019-03-04T02:59:50.255Z,8.95
2019-03-04T03:00:50.242Z,8.95
2019-03-04T03:01:50.220Z,8.97
2019-03-04T03:02:50.169Z,9.00
2019-03-04T03:03:50.132Z,8.97
2019-03-04T03:04:50.623Z,9.03
2019-03-04T03:05:50.621Z,8.95
2019-03-04T03:06:50.062Z,8.94
2019-03-04T03:07:50.034Z,9.02
2019-03-04T03:08:49.974Z,8.97
2019-03-04T03:09:50.623Z,8.89
2019-03-04T03:10:49.915Z,8.85
2019-03-04T03:11:49.902Z,8.92
2019-03-04T03:12:49.852Z,8.87
2019-03-04T03:13:49.819Z,8.85
2019-03-04T03:14:50.623Z,8.87
2019-03-04T03:15:49.759Z,8.89
2019-03-04T03:16:49.757Z,8.87
2019-03-04T03:17:49.693Z,8.91
2019-03-04T03:18:49.671Z,8.88
2019-03-04T03:19:49.636Z,8.92
2019-03-04T03:20:50.123Z,8.91
2019-03-04T03:21:49.609Z,8.97
2019-03-04T03:22:50.125Z,9.00
2019-03-04T03:23:49.507Z,8.89
2019-03-04T03:24:49.475Z,8.84
2019-03-04T03:25:50.126Z,8.84
2019-03-04T03:26:49.429Z,8.85
2019-03-04T03:27:49.406Z,8.87
2019-03-04T03:28:49.353Z,8.87
2019-03-04T03:29:51.878Z,8.85
2019-03-04T03:30:49.286Z,8.85
2019-03-04T03:31:49.264Z,8.85
2019-03-04T03:32:49.707Z,8.84
2019-03-04T03:33:49.211Z,8.91
2019-03-04T03:34:50.193Z,8.95
2019-03-04T03:35:49.131Z,8.95
2019-03-04T03:36:49.098Z,8.89
2019-03-04T03:37:49.099Z,8.94
2019-03-04T03:38:49.037Z,8.97
2019-03-04T03:39:50.532Z,8.97
2019-03-04T03:40:48.971Z,9.00
2019-03-04T03:41:48.948Z,8.99
2019-03-04T03:42:50.068Z,8.92
2019-03-04T03:43:48.884Z,8.99
2019-03-04T03:44:48.850Z,9.02
2019-03-04T03:45:48.818Z,8.95
2019-03-04T03:46:48.792Z,9.03
2019-03-04T03:47:48.798Z,9.10
2019-03-04T03:48:49.631Z,9.11
2019-03-04T03:49:48.721Z,9.16
2019-03-04T03:50:48.683Z,9.13
2019-03-04T03:51:48.647Z,9.11
2019-03-04T03:52:48.646Z,9.19
2019-03-04T03:53:48.597Z,9.26
2019-03-04T03:54:48.550Z,9.23
2019-03-04T03:55:48.558Z,9.28
2019-03-04T03:56:48.490Z,9.28
2019-03-04T03:57:48.478Z,9.31
2019-03-04T03:58:48.427Z,9.32
2019-03-04T03:59:48.377Z,9.37
2019-03-04T04:00:49.130Z,9.44
2019-03-04T04:01:48.329Z,9.44
2019-03-04T04:02:48.340Z,9.37
2019-03-04T04:03:48.260Z,9.41
2019-03-04T04:04:48.236Z,9.43
2019-03-04T04:05:48.211Z,9.44
2019-03-04T04:06:48.165Z,9.56
2019-03-04T04:07:48.159Z,9.54
2019-03-04T04:08:48.136Z,9.59
2019-03-04T04:09:48.077Z,9.54
2019-03-04T04:10:48.042Z,9.61
2019-03-04T04:11:48.016Z,9.69
2019-03-04T04:12:48.007Z,9.58
2019-03-04T04:13:47.945Z,9.62
2019-03-04T04:14:47.915Z,9.54
2019-03-04T04:15:47.882Z,9.51
2019-03-04T04:16:47.854Z,9.65
2019-03-04T04:17:47.847Z,9.66
2019-03-04T04:18:47.796Z,9.55
2019-03-04T04:19:47.763Z,9.55
2019-03-04T04:20:47.731Z,9.54
2019-03-04T04:21:47.698Z,9.59
2019-03-04T04:22:47.699Z,9.61
2019-03-04T04:23:47.639Z,9.66
2019-03-04T04:24:47.616Z,9.65
2019-03-04T04:25:47.574Z,9.72
2019-03-04T04:26:47.545Z,9.82
2019-03-04T04:27:47.672Z,9.80
2019-03-04T04:28:47.499Z,9.86
2019-03-04T04:29:47.452Z,9.89
2019-03-04T04:30:47.436Z,9.95
2019-03-04T04:31:47.393Z,9.87
2019-03-04T04:32:47.702Z,9.97
2019-03-04T04:33:47.332Z,10.01
2019-03-04T04:34:47.298Z,9.99
2019-03-04T04:35:47.268Z,9.99
2019-03-04T04:36:47.239Z,10.04
2019-03-04T04:37:47.234Z,10.04
2019-03-04T04:38:47.206Z,10.05
2019-03-04T04:39:47.159Z,10.16
2019-03-04T04:40:47.114Z,10.25
2019-03-04T04:41:47.095Z,10.22
2019-03-04T04:42:47.080Z,10.23
2019-03-04T04:43:47.033Z,10.30
2019-03-04T04:44:46.994Z,10.30
2019-03-04T04:45:46.962Z,10.33
2019-03-04T04:46:46.933Z,10.35
2019-03-04T04:47:46.904Z,10.44
2019-03-04T04:48:46.898Z,10.41
2019-03-04T04:49:47.019Z,10.46
2019-03-04T04:50:46.812Z,10.48
2019-03-04T04:51:46.780Z,10.46
2019-03-04T04:52:46.751Z,10.49
2019-03-04T04:53:47.174Z,10.54
2019-03-04T04:54:46.690Z,10.54
2019-03-04T04:55:46.657Z,10.57
2019-03-04T04:56:46.640Z,10.54
2019-03-04T04:57:46.602Z,10.57
2019-03-04T04:58:46.595Z,10.54
2019-03-04T04:59:46.551Z,10.68
2019-03-04T05:00:46.513Z,10.71
2019-03-04T05:01:46.483Z,10.64
2019-03-04T05:02:46.446Z,10.53
2019-03-04T05:03:46.447Z,10.64
2019-03-04T05:04:46.391Z,10.56
2019-03-04T05:05:46.356Z,10.56
2019-03-04T05:06:46.329Z,10.57
2019-03-04T05:07:46.296Z,10.54
2019-03-04T05:08:46.290Z,10.54
2019-03-04T05:09:47.142Z,10.48
2019-03-04T05:10:46.207Z,10.37
2019-03-04T05:11:46.185Z,10.35
2019-03-04T05:12:47.145Z,10.31
2019-03-04T05:13:46.139Z,10.28
2019-03-04T05:14:46.092Z,10.22
2019-03-04T05:15:46.059Z,10.16
2019-03-04T05:16:46.034Z,10.19
2019-03-04T05:17:46.000Z,10.15
2019-03-04T05:18:45.989Z,10.16
2019-03-04T05:19:45.938Z,10.04
2019-03-04T05:20:46.642Z,10.01
2019-03-04T05:21:45.877Z,10.01
2019-03-04T05:22:45.847Z,10.04
2019-03-04T05:23:45.835Z,10.04
2019-03-04T05:24:46.642Z,9.98
2019-03-04T05:25:45.758Z,10.01
2019-03-04T05:26:45.727Z,9.99
2019-03-04T05:27:45.699Z,10.02
2019-03-04T05:28:45.701Z,10.04
2019-03-04T05:29:46.065Z,10.07
2019-03-04T05:30:45.612Z,10.01
2019-03-04T05:31:45.636Z,10.04
2019-03-04T05:32:45.543Z,10.10
2019-03-04T05:33:45.539Z,10.04
2019-03-04T05:34:46.145Z,10.01
2019-03-04T05:35:45.454Z,10.01
2019-03-04T05:36:45.428Z,10.05
2019-03-04T05:37:45.396Z,10.15
2019-03-04T05:38:45.390Z,10.12
2019-03-04T05:39:45.333Z,10.02
2019-03-04T05:40:45.301Z,10.05
2019-03-04T05:41:45.274Z,10.13
2019-03-04T05:42:45.243Z,10.13
2019-03-04T05:43:45.243Z,10.13
2019-03-04T05:44:45.185Z,10.15
2019-03-04T05:45:45.149Z,10.07
2019-03-04T05:46:45.126Z,10.05
2019-03-04T05:47:45.100Z,10.12
2019-03-04T05:48:45.113Z,10.12
2019-03-04T05:49:45.648Z,10.15
2019-03-04T05:50:45.014Z,10.13
2019-03-04T05:51:44.976Z,10.15
2019-03-04T05:52:45.663Z,10.04
2019-03-04T05:53:44.940Z,10.01
2019-03-04T05:54:44.880Z,10.02
2019-03-04T05:55:44.857Z,9.99
2019-03-04T05:56:44.822Z,10.02
2019-03-04T05:57:44.790Z,10.01
2019-03-04T05:58:44.785Z,10.02
2019-03-04T05:59:44.736Z,10.01
2019-03-04T06:00:44.705Z,9.95
2019-03-04T06:01:44.669Z,9.97
2019-03-04T06:02:44.643Z,9.94
2019-03-04T06:03:44.649Z,9.84
2019-03-04T06:04:44.578Z,9.89
2019-03-04T06:05:44.547Z,9.87
2019-03-04T06:06:44.521Z,9.91
2019-03-04T06:07:44.488Z,9.89
2019-03-04T06:08:44.461Z,9.84
2019-03-04T06:09:44.452Z,9.91
2019-03-04T06:10:44.397Z,9.87
2019-03-04T06:11:44.366Z,9.84
2019-03-04T06:12:44.338Z,9.95
2019-03-04T06:13:44.332Z,9.91
2019-03-04T06:14:44.683Z,9.95
2019-03-04T06:15:44.244Z,9.94
2019-03-04T06:16:47.456Z,9.97
2019-03-04T06:17:44.187Z,9.92
2019-03-04T06:18:44.157Z,9.95
2019-03-04T06:19:44.175Z,9.86
2019-03-04T06:20:44.099Z,9.92
2019-03-04T06:21:44.067Z,9.86
2019-03-04T06:22:44.034Z,9.87
2019-03-04T06:23:44.010Z,9.89
2019-03-04T06:24:43.994Z,9.83
2019-03-04T06:25:43.945Z,9.83
2019-03-04T06:26:43.931Z,9.84
2019-03-04T06:27:43.889Z,9.86
2019-03-04T06:28:43.864Z,9.89
2019-03-04T06:29:43.870Z,9.83
2019-03-04T06:30:43.795Z,9.91
2019-03-04T06:31:43.764Z,9.92
2019-03-04T06:32:43.733Z,9.98
2019-03-04T06:33:43.703Z,9.92
2019-03-04T06:34:43.699Z,9.92
2019-03-04T06:35:43.642Z,9.97
2019-03-04T06:36:43.625Z,10.04
2019-03-04T06:37:43.583Z,9.92
2019-03-04T06:38:43.553Z,9.97
2019-03-04T06:39:43.544Z,9.99
2019-03-04T06:40:43.493Z,10.04
2019-03-04T06:41:44.157Z,10.01
2019-03-04T06:42:43.438Z,10.09
2019-03-04T06:43:44.249Z,10.05
2019-03-04T06:44:43.397Z,10.04
2019-03-04T06:45:43.342Z,10.04
2019-03-04T06:46:43.310Z,10.13
2019-03-04T06:47:43.277Z,10.15
2019-03-04T06:48:43.252Z,10.19
2019-03-04T06:49:43.245Z,10.30
2019-03-04T06:50:43.192Z,10.23
2019-03-04T06:51:43.161Z,10.35
2019-03-04T06:52:43.132Z,10.33
2019-03-04T06:53:43.102Z,10.30
2019-03-04T06:54:43.109Z,10.26
2019-03-04T06:55:43.038Z,10.34
2019-03-04T06:56:43.010Z,10.37
2019-03-04T06:57:42.979Z,10.22
2019-03-04T06:58:42.949Z,10.30
2019-03-04T06:59:43.658Z,10.28
2019-03-04T07:00:42.912Z,10.33
2019-03-04T07:01:42.860Z,10.31
2019-03-04T07:02:42.830Z,10.26
2019-03-04T07:03:42.803Z,10.41
2019-03-04T07:04:42.771Z,10.48
2019-03-04T07:05:42.765Z,10.49
2019-03-04T07:06:42.708Z,10.53
2019-03-04T07:07:42.681Z,10.56
2019-03-04T07:08:42.652Z,10.68
2019-03-04T07:09:42.624Z,10.69
2019-03-04T07:10:42.615Z,10.79
2019-03-04T07:11:42.570Z,10.76
2019-03-04T07:12:42.534Z,10.89
2019-03-04T07:13:42.508Z,10.81
2019-03-04T07:14:42.479Z,10.87
2019-03-04T07:15:42.471Z,10.93
2019-03-04T07:16:42.414Z,10.87
2019-03-04T07:17:42.385Z,10.86
2019-03-04T07:18:42.355Z,10.87
2019-03-04T07:19:42.323Z,10.92
2019-03-04T07:20:42.300Z,10.93
2019-03-04T07:21:42.290Z,11.00
2019-03-04T07:22:42.244Z,11.00
2019-03-04T07:23:42.211Z,11.00
2019-03-04T07:24:42.178Z,11.02
2019-03-04T07:25:42.150Z,10.97
2019-03-04T07:26:42.144Z,11.04
2019-03-04T07:27:44.305Z,10.94
2019-03-04T07:28:42.084Z,10.99
2019-03-04T07:29:42.032Z,10.92
2019-03-04T07:30:42.003Z,10.93
2019-03-04T07:31:41.998Z,10.92
2019-03-04T07:32:41.958Z,10.90
2019-03-04T07:33:41.915Z,10.92
2019-03-04T07:34:42.669Z,10.93
2019-03-04T07:35:42.670Z,10.93
2019-03-04T07:36:41.851Z,10.89
2019-03-04T07:37:41.803Z,10.86
2019-03-04T07:38:41.784Z,10.94
2019-03-04T07:39:41.750Z,10.84
2019-03-04T07:40:41.710Z,10.92
2019-03-04T07:41:41.711Z,10.97
2019-03-04T07:42:42.166Z,10.87
2019-03-04T07:43:41.674Z,10.94
2019-03-04T07:44:41.590Z,10.81
2019-03-04T07:45:41.566Z,10.81
2019-03-04T07:46:41.720Z,10.79
2019-03-04T07:47:41.504Z,10.79
2019-03-04T07:48:41.481Z,10.78
2019-03-04T07:49:42.177Z,10.74
2019-03-04T07:50:42.167Z,10.81
2019-03-04T07:51:41.392Z,10.78
2019-03-04T07:52:41.382Z,10.81
2019-03-04T07:53:46.426Z,10.75
2019-03-04T07:54:42.189Z,10.68
2019-03-04T07:55:41.276Z,10.68
2019-03-04T07:56:41.246Z,10.79
2019-03-04T07:57:41.233Z,10.79
2019-03-04T07:58:41.186Z,10.75
2019-03-04T07:59:41.156Z,10.82
2019-03-04T08:00:41.178Z,10.84
2019-03-04T08:01:41.097Z,10.86
2019-03-04T08:02:41.097Z,10.89
2019-03-04T08:03:41.135Z,11.04
2019-03-04T08:04:41.017Z,11.07
2019-03-04T08:05:40.982Z,11.12
2019-03-04T08:06:40.956Z,11.10
2019-03-04T08:07:40.947Z,11.10
2019-03-04T08:08:40.913Z,11.18
2019-03-04T08:09:41.672Z,11.23
2019-03-04T08:10:40.834Z,11.17
2019-03-04T08:11:41.671Z,11.17
2019-03-04T08:12:40.800Z,11.26
2019-03-04T08:13:40.752Z,11.29
2019-03-04T08:14:41.670Z,11.30
2019-03-04T08:15:41.674Z,11.41
2019-03-04T08:16:41.175Z,11.48
2019-03-04T08:17:40.663Z,11.52
2019-03-04T08:18:40.609Z,11.62
2019-03-04T08:19:40.613Z,11.75
2019-03-04T08:20:40.581Z,11.86
2019-03-04T08:21:40.541Z,11.99
2019-03-04T08:22:40.544Z,12.18
2019-03-04T08:23:41.176Z,12.25
2019-03-04T08:24:41.175Z,12.28
2019-03-04T08:26:41.136Z,12.36
2019-03-04T08:27:43.083Z,12.45
2019-03-04T08:28:40.421Z,12.53
2019-03-04T08:29:41.082Z,12.54
2019-03-04T08:30:40.277Z,12.72
2019-03-04T08:31:40.290Z,12.76
2019-03-04T08:32:40.207Z,12.82
2019-03-04T08:33:40.202Z,12.90
2019-03-04T08:34:40.158Z,12.91
2019-03-04T08:35:40.125Z,12.90
2019-03-04T08:36:40.095Z,12.93
2019-03-04T08:37:40.064Z,12.86
2019-03-04T08:38:40.060Z,12.90
2019-03-04T08:39:40.011Z,12.91
2019-03-04T08:40:39.981Z,12.79
2019-03-04T08:41:39.955Z,12.78
2019-03-04T08:42:39.930Z,12.78
2019-03-04T08:43:39.948Z,12.78
2019-03-04T08:44:39.871Z,12.70
2019-03-04T08:45:39.849Z,12.80
2019-03-04T08:46:39.819Z,12.82
2019-03-04T08:47:39.789Z,12.65
2019-03-04T08:48:39.811Z,12.73
2019-03-04T08:49:39.737Z,12.72
2019-03-04T08:50:39.730Z,12.79
2019-03-04T08:51:39.683Z,12.79
2019-03-04T08:52:39.653Z,12.87
2019-03-04T08:53:39.647Z,12.90
2019-03-04T08:54:39.604Z,12.86
2019-03-04T08:55:39.579Z,12.87
2019-03-04T08:56:39.543Z,12.93
2019-03-04T08:57:39.515Z,12.95
2019-03-04T08:58:39.520Z,13.04
2019-03-04T08:59:39.465Z,13.04
2019-03-04T09:00:39.433Z,13.11
2019-03-04T09:01:39.402Z,13.13
2019-03-04T09:02:39.381Z,13.13
2019-03-04T09:03:39.370Z,13.27
2019-03-04T09:04:39.323Z,13.16
2019-03-04T09:05:39.299Z,13.25
2019-03-04T09:06:39.263Z,13.35
2019-03-04T09:07:39.237Z,13.31
2019-03-04T09:08:39.218Z,13.44
2019-03-04T09:09:39.208Z,13.38
2019-03-04T09:10:39.155Z,13.37
2019-03-04T09:11:39.130Z,13.44
2019-03-04T09:12:39.098Z,13.31
2019-03-04T09:13:39.081Z,13.39
2019-03-04T09:14:39.073Z,13.44
2019-03-04T09:15:39.024Z,13.44
2019-03-04T09:16:38.993Z,13.41
2019-03-04T09:17:38.980Z,13.46
2019-03-04T09:18:38.935Z,13.38
2019-03-04T09:19:38.934Z,13.42
2019-03-04T09:20:39.684Z,13.50
2019-03-04T09:21:38.852Z,13.46
2019-03-04T09:22:38.832Z,13.47
2019-03-04T09:23:38.801Z,13.47
2019-03-04T09:24:38.795Z,13.47
2019-03-04T09:25:38.751Z,13.49
2019-03-04T09:26:38.716Z,13.44
2019-03-04T09:27:38.695Z,13.46
2019-03-04T09:28:38.661Z,13.31
2019-03-04T09:29:38.658Z,13.33
2019-03-04T09:30:41.596Z,13.33
2019-03-04T09:31:38.588Z,13.30
2019-03-04T09:32:38.552Z,13.31
2019-03-04T09:33:38.527Z,13.30
2019-03-04T09:34:38.527Z,13.30
2019-03-04T09:35:38.474Z,13.31
2019-03-04T09:36:38.449Z,13.35
2019-03-04T09:37:38.421Z,13.31
2019-03-04T09:38:38.390Z,13.37
2019-03-04T09:39:38.382Z,13.41
2019-03-04T09:40:39.191Z,13.49
2019-03-04T09:41:39.199Z,13.49
2019-03-04T09:42:38.294Z,13.49
2019-03-04T09:43:38.251Z,13.67
2019-03-04T09:44:38.251Z,13.72
2019-03-04T09:45:39.373Z,13.75
2019-03-04T09:46:38.183Z,13.81
2019-03-04T09:47:38.137Z,13.95
2019-03-04T09:48:38.112Z,14.04
2019-03-04T09:49:38.110Z,14.12
2019-03-04T09:50:38.057Z,14.20
2019-03-04T09:51:38.692Z,14.29
2019-03-04T09:52:38.009Z,14.43
2019-03-04T09:53:39.691Z,14.59
2019-03-04T09:54:37.974Z,14.68
2019-03-04T09:55:37.925Z,14.73
2019-03-04T09:56:37.896Z,14.97
2019-03-04T09:57:37.875Z,15.02
2019-03-04T09:58:37.847Z,15.03
2019-03-04T09:59:37.840Z,15.21
2019-03-04T10:00:37.786Z,15.39
2019-03-04T10:01:37.766Z,15.42
2019-03-04T10:02:37.738Z,15.47
2019-03-04T10:03:37.713Z,15.61
2019-03-04T10:04:37.710Z,15.64
2019-03-04T10:05:37.662Z,15.73
2019-03-04T10:06:37.634Z,15.68
2019-03-04T10:07:37.604Z,15.68
2019-03-04T10:08:37.587Z,15.75
2019-03-04T10:09:37.572Z,15.62
2019-03-04T10:10:37.548Z,15.49
2019-03-04T10:11:37.498Z,15.47
2019-03-04T10:12:37.490Z,15.52
2019-03-04T10:13:37.449Z,15.51
2019-03-04T10:14:37.425Z,15.35
2019-03-04T10:15:37.423Z,15.52
2019-03-04T10:16:37.378Z,15.65
2019-03-04T10:17:37.344Z,15.76
2019-03-04T10:18:37.323Z,15.86
2019-03-04T10:19:37.296Z,16.05
2019-03-04T10:20:37.343Z,16.15
2019-03-04T10:21:37.249Z,16.24
2019-03-04T10:22:37.220Z,16.41
2019-03-04T10:23:37.196Z,16.56
2019-03-04T10:24:37.169Z,16.78
2019-03-04T10:25:37.168Z,16.84
2019-03-04T10:26:37.124Z,16.93
2019-03-04T10:27:37.092Z,16.97
2019-03-04T10:28:37.058Z,17.02
2019-03-04T10:29:37.036Z,16.86
2019-03-04T10:30:37.036Z,16.87
2019-03-04T10:31:36.988Z,16.84
2019-03-04T10:32:36.964Z,16.71
2019-03-04T10:33:36.936Z,16.54
2019-03-04T10:34:36.908Z,16.53
2019-03-04T10:35:36.912Z,16.41
2019-03-04T10:36:36.862Z,16.35
2019-03-04T10:37:37.708Z,16.28
2019-03-04T10:38:36.809Z,16.33
2019-03-04T10:39:36.783Z,16.26
2019-03-04T10:40:36.785Z,16.26
2019-03-04T10:41:36.733Z,16.31
2019-03-04T10:42:36.711Z,16.21
2019-03-04T10:43:36.686Z,16.21
2019-03-04T10:44:37.984Z,16.13
2019-03-04T10:45:36.630Z,16.01
2019-03-04T10:46:36.631Z,16.08
2019-03-04T10:47:43.677Z,16.08
2019-03-04T10:48:36.551Z,16.00
2019-03-04T10:49:36.531Z,16.02
2019-03-04T10:50:36.502Z,16.17
2019-03-04T10:51:36.505Z,16.20
2019-03-04T10:52:36.451Z,16.20
2019-03-04T10:53:36.444Z,16.15
2019-03-04T10:54:36.403Z,16.15
2019-03-04T10:55:42.102Z,16.23
2019-03-04T10:56:36.373Z,16.26
2019-03-04T10:57:36.326Z,16.21
2019-03-04T10:58:36.297Z,16.24
2019-03-04T10:59:36.270Z,16.39
2019-03-04T11:00:36.248Z,16.26
2019-03-04T11:01:36.249Z,16.16
2019-03-04T11:02:36.200Z,16.09
2019-03-04T11:03:36.177Z,16.10
2019-03-04T11:04:36.145Z,16.17
2019-03-04T11:05:36.128Z,16.10
2019-03-04T11:06:36.117Z,15.83
2019-03-04T11:07:36.067Z,15.70
2019-03-04T11:08:36.043Z,15.44
2019-03-04T11:09:36.019Z,15.00
2019-03-04T11:10:35.994Z,13.57
2019-03-04T11:11:35.994Z,12.22
2019-03-04T11:12:35.943Z,11.36
2019-03-04T11:13:35.918Z,10.82
2019-03-04T11:14:35.889Z,10.35
2019-03-04T11:15:35.858Z,10.19
2019-03-04T11:16:35.833Z,9.98
2019-03-04T11:17:35.827Z,9.74
2019-03-04T11:18:35.778Z,9.65
2019-03-04T11:19:35.746Z,9.64
2019-03-04T11:20:35.717Z,9.55
2019-03-04T11:21:35.696Z,9.58
2019-03-04T11:22:35.710Z,9.46
2019-03-04T11:23:35.631Z,9.36
2019-03-04T11:24:35.605Z,9.41
2019-03-04T11:25:35.572Z,9.36
2019-03-04T11:26:35.545Z,9.25
2019-03-04T11:27:35.606Z,9.25
2019-03-04T11:28:35.485Z,9.29
2019-03-04T11:29:35.488Z,9.28
2019-03-04T11:30:35.427Z,9.34
2019-03-04T11:31:35.403Z,9.39
2019-03-04T11:32:35.430Z,9.36
2019-03-04T11:33:35.333Z,9.19
2019-03-04T11:34:35.308Z,9.11
2019-03-04T11:35:35.287Z,8.95
2019-03-04T11:36:35.242Z,9.00
2019-03-04T11:37:35.314Z,9.02
2019-03-04T11:38:35.188Z,8.97
2019-03-04T11:39:35.149Z,8.94
2019-03-04T11:40:35.149Z,8.85
2019-03-04T11:41:35.092Z,8.91
2019-03-04T11:42:35.100Z,8.97
2019-03-04T11:43:35.033Z,8.91
2019-03-04T11:44:35.000Z,8.87
2019-03-04T11:45:34.973Z,8.82
2019-03-04T11:46:34.945Z,8.70
2019-03-04T11:47:34.915Z,8.78
2019-03-04T11:48:34.934Z,8.85
2019-03-04T11:49:34.857Z,8.88
2019-03-04T11:50:34.815Z,8.87
2019-03-04T11:51:34.837Z,8.95
2019-03-04T11:52:34.759Z,9.03
2019-03-04T11:53:35.658Z,9.11
2019-03-04T11:54:34.713Z,9.22
2019-03-04T11:55:34.699Z,9.26
2019-03-04T11:56:34.644Z,9.28
2019-03-04T11:57:34.624Z,9.41
2019-03-04T11:58:34.616Z,9.43
2019-03-04T11:59:34.586Z,9.56
2019-03-04T12:00:34.523Z,9.66
2019-03-04T12:01:34.481Z,9.65
2019-03-04T12:02:38.835Z,9.83
2019-03-04T12:03:34.455Z,10.16
2019-03-04T12:04:34.405Z,10.44
2019-03-04T12:05:34.370Z,10.61
2019-03-04T12:06:34.332Z,10.72
2019-03-04T12:07:34.320Z,10.90
2019-03-04T12:08:34.324Z,11.05
2019-03-04T12:09:34.244Z,11.08
2019-03-04T12:10:34.232Z,11.08
2019-03-04T12:11:38.157Z,11.14
2019-03-04T12:12:34.155Z,11.25
2019-03-04T12:13:34.180Z,11.50
2019-03-04T12:14:34.105Z,11.66
2019-03-04T12:15:34.180Z,11.70
2019-03-04T12:16:34.087Z,11.70
2019-03-04T12:17:34.028Z,11.75
2019-03-04T12:18:34.046Z,11.66
2019-03-04T12:19:33.972Z,11.69
2019-03-04T12:20:33.927Z,11.57
2019-03-04T12:21:33.898Z,11.55
2019-03-04T12:22:33.896Z,11.55
2019-03-04T12:23:33.836Z,11.45
2019-03-04T12:24:33.874Z,11.45
2019-03-04T12:25:33.793Z,11.48
2019-03-04T12:26:33.766Z,11.43
2019-03-04T12:27:33.735Z,11.48
2019-03-04T12:28:33.702Z,11.41
2019-03-04T12:29:33.729Z,11.43
2019-03-04T12:30:33.652Z,11.30
2019-03-04T12:31:33.612Z,11.44
2019-03-04T12:32:33.586Z,11.43
2019-03-04T12:33:33.569Z,11.35
2019-03-04T12:34:33.573Z,11.27
2019-03-04T12:35:33.482Z,11.22
2019-03-04T12:36:33.477Z,11.27
2019-03-04T12:37:33.456Z,11.29
2019-03-04T12:38:33.402Z,11.45
2019-03-04T12:39:33.412Z,11.43
2019-03-04T12:40:33.355Z,11.62
2019-03-04T12:41:33.316Z,11.70
2019-03-04T12:42:33.303Z,11.78
2019-03-04T12:43:33.298Z,11.86
2019-03-04T12:44:33.291Z,11.88
2019-03-04T12:45:34.610Z,11.84
2019-03-04T12:46:33.180Z,11.84
2019-03-04T12:47:33.164Z,11.95
2019-03-04T12:48:33.148Z,11.87
2019-03-04T12:49:33.134Z,11.91
2019-03-04T12:50:33.082Z,11.94
2019-03-04T12:51:33.032Z,11.97
2019-03-04T12:52:33.018Z,12.09
2019-03-04T12:53:37.316Z,12.07
2019-03-04T12:54:33.096Z,12.13
2019-03-04T12:55:32.939Z,12.18
2019-03-04T12:56:32.915Z,12.25
2019-03-04T12:57:32.902Z,12.32
2019-03-04T12:58:32.850Z,12.40
2019-03-04T12:59:32.857Z,12.50
2019-03-04T13:00:32.779Z,12.54
2019-03-04T13:01:32.755Z,12.64
2019-03-04T13:02:32.736Z,12.70